createdAt,value
2023-03-10T00:00:00.484Z,100.00
2023-03-10T00:02:30.599Z,100.00
2023-03-10T00:04:57.003Z,100.00
2023-03-10T00:07:23.346Z,100.00
2023-03-10T00:09:49.723Z,99.56
2023-03-10T00:12:16.091Z,100.00
2023-03-10T00:14:42.426Z,100.00
2023-03-10T00:17:08.789Z,100.00
2023-03-10T00:19:35.213Z,99.49
2023-03-10T00:22:03.603Z,99.76
2023-03-10T00:24:29.960Z,99.73
2023-03-10T00:26:56.282Z,99.65
2023-03-10T00:29:22.647Z,99.38
2023-03-10T00:31:49.003Z,99.33
2023-03-10T00:34:15.332Z,98.95
2023-03-10T00:36:41.664Z,99.36
2023-03-10T00:39:11.865Z,99.25
2023-03-10T00:41:41.688Z,99.13
2023-03-10T00:44:09.480Z,98.76
2023-03-10T00:46:38.533Z,98.27
2023-03-10T00:49:07.121Z,98.27
2023-03-10T00:51:34.883Z,97.60
2023-03-10T00:54:02.723Z,97.50
2023-03-10T00:56:29.929Z,97.04
2023-03-10T00:58:59.037Z,96.65
2023-03-10T01:01:30.464Z,96.37
2023-03-10T01:04:00.263Z,95.60
2023-03-10T01:06:27.444Z,95.66
2023-03-10T01:08:54.518Z,95.29
2023-03-10T01:11:24.012Z,94.53
2023-03-10T01:13:51.451Z,94.12
2023-03-10T01:16:18.338Z,93.28
2023-03-10T01:18:44.944Z,92.10
2023-03-10T01:21:18.317Z,91.72
2023-03-10T01:23:44.902Z,91.22
2023-03-10T01:26:11.630Z,90.93
2023-03-10T01:28:38.416Z,91.60
2023-03-10T01:31:07.645Z,91.93
2023-03-10T01:33:35.928Z,92.21
2023-03-10T01:36:07.920Z,92.33
2023-03-10T01:38:34.261Z,92.54
2023-03-10T01:41:00.779Z,92.71
2023-03-10T01:43:34.946Z,93.30
2023-03-10T01:46:01.302Z,93.62
2023-03-10T01:48:35.901Z,93.38
2023-03-10T01:51:03.528Z,93.78
2023-03-10T01:53:30.494Z,93.79
2023-03-10T01:56:02.604Z,93.71
2023-03-10T01:58:37.873Z,94.17
2023-03-10T02:01:06.634Z,94.02
2023-03-10T02:03:40.910Z,94.15
2023-03-10T02:06:14.909Z,94.14
2023-03-10T02:08:45.899Z,94.51
2023-03-10T02:11:14.633Z,94.23
2023-03-10T02:13:42.078Z,94.26
2023-03-10T02:16:08.820Z,94.17
2023-03-10T02:18:35.323Z,94.21
2023-03-10T02:21:13.494Z,93.82
2023-03-10T02:24:01.691Z,93.97
2023-03-10T02:26:56.029Z,93.97
2023-03-10T02:29:45.458Z,94.09
2023-03-10T02:32:19.458Z,94.13
2023-03-10T02:34:45.853Z,94.47
2023-03-10T02:37:19.675Z,94.53
2023-03-10T02:39:46.723Z,94.64
2023-03-10T02:42:13.052Z,95.40
2023-03-10T02:44:39.835Z,95.46
2023-03-10T02:47:06.297Z,95.34
2023-03-10T02:49:35.220Z,95.47
2023-03-10T02:52:07.544Z,96.00
2023-03-10T02:54:33.874Z,96.17
2023-03-10T02:57:00.253Z,96.12
2023-03-10T02:59:26.884Z,96.16
2023-03-10T03:01:53.914Z,96.36
2023-03-10T03:04:20.475Z,96.70
2023-03-10T03:06:47.014Z,96.34
2023-03-10T03:09:13.804Z,96.88
2023-03-10T03:11:40.428Z,96.70
2023-03-10T03:14:08.796Z,97.13
2023-03-10T03:16:35.612Z,97.39
2023-03-10T03:19:05.577Z,97.34
2023-03-10T03:21:31.995Z,96.70
2023-03-10T03:23:58.930Z,96.09
2023-03-10T03:26:26.948Z,96.34
2023-03-10T03:29:00.207Z,95.91
2023-03-10T03:31:30.425Z,95.76
2023-03-10T03:34:10.287Z,95.78
2023-03-10T03:36:37.899Z,95.75
2023-03-10T03:39:08.950Z,95.58
2023-03-10T03:41:36.855Z,95.29
2023-03-10T03:44:04.105Z,95.38
2023-03-10T03:46:32.837Z,95.06
2023-03-10T03:49:00.028Z,95.37
2023-03-10T03:51:27.193Z,94.73
2023-03-10T03:53:53.693Z,94.65
2023-03-10T03:56:21.360Z,94.65
2023-03-10T03:58:47.812Z,94.42
2023-03-10T04:01:14.688Z,94.57
2023-03-10T04:03:46.242Z,94.65
2023-03-10T04:06:15.729Z,94.69
2023-03-10T04:08:43.215Z,94.77
2023-03-10T04:11:09.835Z,95.09
2023-03-10T04:13:40.017Z,95.20
2023-03-10T04:16:07.737Z,95.54
2023-03-10T04:18:36.302Z,95.69
2023-03-10T04:21:03.418Z,95.60
2023-03-10T04:23:30.597Z,96.16
2023-03-10T04:25:57.504Z,95.08
2023-03-10T04:28:24.260Z,95.13
2023-03-10T04:30:51.167Z,94.98
2023-03-10T04:33:21.914Z,95.07
2023-03-10T04:35:51.232Z,95.19
2023-03-10T04:38:19.253Z,95.21
2023-03-10T04:40:53.526Z,95.05
2023-03-10T04:43:20.709Z,94.71
2023-03-10T04:45:48.439Z,94.92
2023-03-10T04:48:15.518Z,94.90
2023-03-10T04:50:42.456Z,94.90
2023-03-10T04:53:09.870Z,94.87
2023-03-10T04:55:36.304Z,94.90
2023-03-10T04:58:04.710Z,95.08
2023-03-10T05:00:32.024Z,94.99
2023-03-10T05:02:58.674Z,95.20
2023-03-10T05:05:25.244Z,95.25
2023-03-10T05:07:51.626Z,95.29
2023-03-10T05:10:19.216Z,95.79
2023-03-10T05:12:45.855Z,95.75
2023-03-10T05:15:12.541Z,95.33
2023-03-10T05:17:38.961Z,95.52
2023-03-10T05:20:08.754Z,95.46
2023-03-10T05:22:37.218Z,94.96
2023-03-10T05:25:05.104Z,95.07
2023-03-10T05:27:35.947Z,95.39
2023-03-10T05:30:05.015Z,95.33
2023-03-10T05:32:34.341Z,95.27
2023-03-10T05:35:01.156Z,95.20
2023-03-10T05:37:27.560Z,95.02
2023-03-10T05:39:54.619Z,95.21
2023-03-10T05:42:22.207Z,94.87
2023-03-10T05:44:49.278Z,95.16
2023-03-10T05:47:18.935Z,95.11
2023-03-10T05:49:46.260Z,94.89
2023-03-10T05:52:12.729Z,94.68
2023-03-10T05:54:40.524Z,94.47
2023-03-10T05:57:06.988Z,94.41
2023-03-10T05:59:33.482Z,94.35
2023-03-10T06:02:00.029Z,94.21
2023-03-10T06:04:28.320Z,93.96
2023-03-10T06:06:55.992Z,93.96
2023-03-10T06:09:22.399Z,93.47
2023-03-10T06:11:48.756Z,93.29
2023-03-10T06:14:15.063Z,93.29
2023-03-10T06:16:41.484Z,93.18
2023-03-10T06:19:07.844Z,92.70
2023-03-10T06:21:34.177Z,92.98
2023-03-10T06:24:00.602Z,92.59
2023-03-10T06:26:26.983Z,93.10
2023-03-10T06:28:53.314Z,92.83
2023-03-10T06:31:22.971Z,92.92
2023-03-10T06:33:49.339Z,92.86
2023-03-10T06:36:16.383Z,92.73
2023-03-10T06:38:43.027Z,92.57
2023-03-10T06:41:10.039Z,92.44
2023-03-10T06:43:36.963Z,92.50
2023-03-10T06:46:05.700Z,92.18
2023-03-10T06:48:32.353Z,92.28
2023-03-10T06:50:58.928Z,92.02
2023-03-10T06:53:26.875Z,91.93
2023-03-10T06:56:12.024Z,91.47
2023-03-10T06:58:38.641Z,91.19
2023-03-10T07:01:06.837Z,90.89
2023-03-10T07:03:34.374Z,90.95
2023-03-10T07:06:00.866Z,90.77
2023-03-10T07:08:28.525Z,90.68
2023-03-10T07:10:55.857Z,90.59
2023-03-10T07:13:22.249Z,90.28
2023-03-10T07:15:48.810Z,90.72
2023-03-10T07:18:15.563Z,90.66
2023-03-10T07:20:44.946Z,90.80
2023-03-10T07:23:11.998Z,90.48
2023-03-10T07:25:39.169Z,90.66
2023-03-10T07:28:06.569Z,90.65
2023-03-10T07:30:34.048Z,90.94
2023-03-10T07:33:00.508Z,90.85
2023-03-10T07:35:26.917Z,90.42
2023-03-10T07:37:53.260Z,90.54
2023-03-10T07:40:24.650Z,90.02
2023-03-10T07:42:54.328Z,90.64
2023-03-10T07:45:22.449Z,90.25
2023-03-10T07:47:50.776Z,90.31
2023-03-10T07:50:17.990Z,90.34
2023-03-10T07:52:44.352Z,90.39
2023-03-10T07:55:10.839Z,90.86
2023-03-10T07:57:37.247Z,91.20
2023-03-10T08:00:05.571Z,91.57
2023-03-10T08:02:38.483Z,91.64
2023-03-10T08:05:05.346Z,92.07
2023-03-10T08:07:31.900Z,92.12
2023-03-10T08:09:58.367Z,92.47
2023-03-10T08:12:24.719Z,92.37
2023-03-10T08:14:52.051Z,92.82
2023-03-10T08:17:19.606Z,92.89
2023-03-10T08:19:45.960Z,92.60
2023-03-10T08:22:12.577Z,92.60
2023-03-10T08:24:39.377Z,92.46
2023-03-10T08:27:05.854Z,92.71
2023-03-10T08:29:32.540Z,92.63
2023-03-10T08:31:58.966Z,91.99
2023-03-10T08:34:25.308Z,92.15
2023-03-10T08:36:51.668Z,92.24
2023-03-10T08:39:18.129Z,92.14
2023-03-10T08:41:48.966Z,92.42
2023-03-10T08:44:17.849Z,92.58
2023-03-10T08:46:46.877Z,92.66
2023-03-10T08:49:15.424Z,92.96
2023-03-10T08:51:42.116Z,92.92
2023-03-10T08:54:09.032Z,93.04
2023-03-10T08:56:35.417Z,93.57
2023-03-10T08:59:01.869Z,93.67
2023-03-10T09:01:31.941Z,93.54
2023-03-10T09:03:59.270Z,93.63
2023-03-10T09:06:26.376Z,93.25
2023-03-10T09:08:52.784Z,93.74
2023-03-10T09:11:26.192Z,93.46
2023-03-10T09:13:52.894Z,93.78
2023-03-10T09:16:19.282Z,93.97
2023-03-10T09:18:45.797Z,93.84
2023-03-10T09:21:14.764Z,93.69
2023-03-10T09:23:43.174Z,93.90
2023-03-10T09:26:09.650Z,94.31
2023-03-10T09:28:36.224Z,93.92
2023-03-10T09:31:07.967Z,94.01
2023-03-10T09:33:35.494Z,93.47
2023-03-10T09:36:07.402Z,92.97
2023-03-10T09:38:35.314Z,92.62
2023-03-10T09:41:13.796Z,92.21
2023-03-10T09:43:50.301Z,91.88
2023-03-10T09:46:30.272Z,91.47
2023-03-10T09:49:05.881Z,91.18
2023-03-10T09:51:32.300Z,89.54
2023-03-10T09:54:06.237Z,90.10
2023-03-10T09:56:34.670Z,90.10
2023-03-10T09:59:24.718Z,89.63
2023-03-10T10:01:53.769Z,89.68
2023-03-10T10:04:31.666Z,89.29
2023-03-10T10:06:59.062Z,88.31
2023-03-10T10:09:41.976Z,88.41
2023-03-10T10:12:13.426Z,87.85
2023-03-10T10:14:47.936Z,87.58
2023-03-10T10:18:02.938Z,87.54
2023-03-10T10:20:58.917Z,86.42
2023-03-10T10:23:38.588Z,84.79
2023-03-10T10:26:12.015Z,83.51
2023-03-10T10:28:56.706Z,82.74
2023-03-10T10:31:29.265Z,82.11
2023-03-10T10:34:19.988Z,79.15
2023-03-10T10:36:52.642Z,79.06
2023-03-10T10:39:32.158Z,78.71
2023-03-10T10:42:24.876Z,79.66
2023-03-10T10:44:56.706Z,77.74
2023-03-10T10:47:28.449Z,77.03
2023-03-10T10:50:08.374Z,76.84
2023-03-10T10:52:34.797Z,77.29
2023-03-10T10:55:02.318Z,75.39
2023-03-10T10:57:32.820Z,75.37
2023-03-10T11:00:32.000Z,74.42
2023-03-10T11:02:58.797Z,74.13
2023-03-10T11:05:33.719Z,73.45
2023-03-10T11:08:30.379Z,74.52
2023-03-10T11:11:04.068Z,74.16
2023-03-10T11:14:07.273Z,73.70
2023-03-10T11:16:59.925Z,74.02
2023-03-10T11:19:51.853Z,74.60
2023-03-10T11:22:39.737Z,72.98
2023-03-10T11:25:24.522Z,73.03
2023-03-10T11:28:21.618Z,74.57
2023-03-10T11:31:13.162Z,72.86
2023-03-10T11:34:01.048Z,71.06
2023-03-10T11:36:53.469Z,70.21
2023-03-10T11:39:31.892Z,71.47
2023-03-10T11:42:10.416Z,71.84
2023-03-10T11:45:13.750Z,71.86
2023-03-10T11:47:58.664Z,71.76
2023-03-10T11:50:41.772Z,71.53
2023-03-10T11:53:19.825Z,71.89
2023-03-10T11:55:48.568Z,72.87
2023-03-10T11:58:24.024Z,72.00
2023-03-10T12:00:53.676Z,71.64
2023-03-10T12:03:42.121Z,73.12
2023-03-10T12:06:15.984Z,73.37
2023-03-10T12:08:42.594Z,73.91
2023-03-10T12:11:16.733Z,76.42
2023-03-10T12:13:47.501Z,79.13
2023-03-10T12:16:26.923Z,80.19
2023-03-10T12:18:53.662Z,81.15
2023-03-10T12:21:27.966Z,81.79
2023-03-10T12:23:56.666Z,82.61
2023-03-10T12:26:38.124Z,83.43
2023-03-10T12:29:19.725Z,84.15
2023-03-10T12:31:51.425Z,84.27
2023-03-10T12:34:23.545Z,85.10
2023-03-10T12:36:54.653Z,84.87
2023-03-10T12:39:38.530Z,85.71
2023-03-10T12:42:28.890Z,86.50
2023-03-10T12:45:08.124Z,86.63
2023-03-10T12:47:55.187Z,86.88
2023-03-10T12:50:48.877Z,87.79
2023-03-10T12:53:39.488Z,88.19
2023-03-10T12:56:19.963Z,88.54
2023-03-10T12:58:54.725Z,88.21
2023-03-10T13:01:25.131Z,88.85
2023-03-10T13:03:53.449Z,89.01
2023-03-10T13:06:22.023Z,88.91
2023-03-10T13:08:53.551Z,89.54
2023-03-10T13:11:19.834Z,89.75
2023-03-10T13:13:53.044Z,89.80
2023-03-10T13:16:20.832Z,89.57
2023-03-10T13:18:56.329Z,88.57
2023-03-10T13:21:31.580Z,88.33
2023-03-10T13:24:00.369Z,88.81
2023-03-10T13:26:27.168Z,88.59
2023-03-10T13:29:02.240Z,88.53
2023-03-10T13:31:31.327Z,88.58
2023-03-10T13:34:12.192Z,88.62
2023-03-10T13:36:40.028Z,88.99
2023-03-10T13:39:16.910Z,89.10
2023-03-10T13:41:46.464Z,89.26
2023-03-10T13:44:27.449Z,89.03
2023-03-10T13:46:56.368Z,89.68
2023-03-10T13:49:26.138Z,89.91
2023-03-10T13:51:58.103Z,89.93
2023-03-10T13:54:28.320Z,91.28
2023-03-10T13:57:15.506Z,90.56
2023-03-10T13:59:42.305Z,90.66
2023-03-10T14:02:18.834Z,90.92
2023-03-10T14:04:50.656Z,91.38
2023-03-10T14:07:29.439Z,91.54
2023-03-10T14:10:04.658Z,91.66
2023-03-10T14:12:49.398Z,92.72
2023-03-10T14:15:18.781Z,92.84
2023-03-10T14:18:06.485Z,93.24
2023-03-10T14:20:34.241Z,92.93
2023-03-10T14:23:23.241Z,93.03
2023-03-10T14:25:54.444Z,93.03
2023-03-10T14:28:26.489Z,93.39
2023-03-10T14:30:53.925Z,93.42
2023-03-10T14:33:20.768Z,93.52
2023-03-10T14:35:47.653Z,93.66
2023-03-10T14:38:14.080Z,93.62
2023-03-10T14:40:49.217Z,94.08
2023-03-10T14:43:19.717Z,94.13
2023-03-10T14:45:48.496Z,94.08
2023-03-10T14:48:19.791Z,94.01
2023-03-10T14:50:47.408Z,93.70
2023-03-10T14:53:16.554Z,93.50
2023-03-10T14:55:47.591Z,92.76
2023-03-10T14:58:18.208Z,92.94
2023-03-10T15:00:44.585Z,92.51
2023-03-10T15:03:12.335Z,92.08
2023-03-10T15:05:48.371Z,92.61
2023-03-10T15:08:16.516Z,92.02
2023-03-10T15:10:47.870Z,91.61
2023-03-10T15:13:14.514Z,92.00
2023-03-10T15:15:43.274Z,91.60
2023-03-10T15:18:12.367Z,90.05
2023-03-10T15:20:38.713Z,90.33
2023-03-10T15:23:05.245Z,90.06
2023-03-10T15:25:31.647Z,90.69
2023-03-10T15:27:58.075Z,91.21
2023-03-10T15:30:31.024Z,90.58
2023-03-10T15:32:57.537Z,91.72
2023-03-10T15:35:24.302Z,91.84
2023-03-10T15:37:52.092Z,92.02
2023-03-10T15:40:24.679Z,92.05
2023-03-10T15:42:51.681Z,91.79
2023-03-10T15:45:18.831Z,91.83
2023-03-10T15:47:46.118Z,91.71
2023-03-10T15:50:14.009Z,91.34
2023-03-10T15:52:52.106Z,91.05
2023-03-10T15:55:18.682Z,91.84
2023-03-10T15:57:47.798Z,91.46
2023-03-10T16:00:16.810Z,91.74
2023-03-10T16:02:46.937Z,91.53
2023-03-10T16:05:13.786Z,91.96
2023-03-10T16:07:40.165Z,92.29
2023-03-10T16:10:09.855Z,92.88
2023-03-10T16:12:36.219Z,93.46
2023-03-10T16:15:02.593Z,94.27
2023-03-10T16:17:29.381Z,91.67
2023-03-10T16:19:55.892Z,90.44
2023-03-10T16:22:22.791Z,90.44
2023-03-10T16:24:49.114Z,91.74
2023-03-10T16:27:15.968Z,92.14
2023-03-10T16:29:42.822Z,90.87
2023-03-10T16:32:09.953Z,91.06
2023-03-10T16:34:36.339Z,91.25
2023-03-10T16:37:02.753Z,91.53
2023-03-10T16:39:32.558Z,91.83
2023-03-10T16:41:59.314Z,91.27
2023-03-10T16:44:26.082Z,92.39
2023-03-10T16:46:52.474Z,91.04
2023-03-10T16:49:19.013Z,91.13
2023-03-10T16:51:47.090Z,91.50
2023-03-10T16:54:17.865Z,91.74
2023-03-10T16:56:47.588Z,91.91
2023-03-10T16:59:19.980Z,92.48
2023-03-10T17:01:47.396Z,92.18
2023-03-10T17:04:13.873Z,91.99
2023-03-10T17:06:40.891Z,92.56
2023-03-10T17:09:09.119Z,92.29
2023-03-10T17:11:38.528Z,93.31
2023-03-10T17:14:07.619Z,93.64
2023-03-10T17:16:36.923Z,93.52
2023-03-10T17:19:10.263Z,92.98
2023-03-10T17:21:39.256Z,94.04
2023-03-10T17:24:07.639Z,93.05
2023-03-10T17:26:35.306Z,93.57
2023-03-10T17:29:01.703Z,93.46
2023-03-10T17:31:29.114Z,94.50
2023-03-10T17:34:00.013Z,94.69
2023-03-10T17:36:26.801Z,93.69
2023-03-10T17:38:58.714Z,94.34
2023-03-10T17:41:26.264Z,93.70
2023-03-10T17:43:54.229Z,94.74
2023-03-10T17:46:24.075Z,94.63
2023-03-10T17:48:53.661Z,94.43
2023-03-10T17:51:28.673Z,94.81
2023-03-10T17:53:57.929Z,94.19
2023-03-10T17:56:25.442Z,95.08
2023-03-10T17:58:56.801Z,94.97
2023-03-10T18:01:27.196Z,94.63
2023-03-10T18:03:56.003Z,93.83
2023-03-10T18:06:25.265Z,94.75
2023-03-10T18:08:53.709Z,94.84
2023-03-10T18:11:22.192Z,93.01
2023-03-10T18:13:48.983Z,94.65
2023-03-10T18:16:21.863Z,94.82
2023-03-10T18:18:48.473Z,93.75
2023-03-10T18:21:16.808Z,94.32
2023-03-10T18:23:43.780Z,93.67
2023-03-10T18:26:12.726Z,94.36
2023-03-10T18:28:39.900Z,94.54
2023-03-10T18:31:08.799Z,94.18
2023-03-10T18:33:35.804Z,93.33
2023-03-10T18:36:05.165Z,93.53
2023-03-10T18:38:31.557Z,93.94
2023-03-10T18:41:00.129Z,92.57
2023-03-10T18:43:28.985Z,93.57
2023-03-10T18:45:55.876Z,93.11
2023-03-10T18:48:25.513Z,93.09
2023-03-10T18:50:53.202Z,93.43
2023-03-10T18:53:19.705Z,92.75
2023-03-10T18:55:46.037Z,93.63
2023-03-10T18:58:12.456Z,92.68
2023-03-10T19:00:39.528Z,94.03
2023-03-10T19:03:06.173Z,94.13
2023-03-10T19:05:32.545Z,92.93
2023-03-10T19:07:58.985Z,93.80
2023-03-10T19:10:25.297Z,94.50
2023-03-10T19:12:51.666Z,93.70
2023-03-10T19:15:18.563Z,93.17
2023-03-10T19:17:45.592Z,93.98
2023-03-10T19:20:13.503Z,93.16
2023-03-10T19:22:40.214Z,94.44
2023-03-10T19:25:08.999Z,93.07
2023-03-10T19:27:39.654Z,94.65
2023-03-10T19:30:17.891Z,94.34
2023-03-10T19:32:44.844Z,93.30
2023-03-10T19:35:11.958Z,93.92
2023-03-10T19:37:39.326Z,94.12
2023-03-10T19:40:08.394Z,94.39
2023-03-10T19:42:36.807Z,93.21
2023-03-10T19:45:03.674Z,93.96
2023-03-10T19:47:30.955Z,93.65
2023-03-10T19:49:57.351Z,93.76
2023-03-10T19:52:23.876Z,92.35
2023-03-10T19:54:51.625Z,92.54
2023-03-10T19:57:18.021Z,92.85
2023-03-10T19:59:44.394Z,91.52
2023-03-10T20:02:15.502Z,91.96
2023-03-10T20:04:42.762Z,92.30
2023-03-10T20:07:09.531Z,91.65
2023-03-10T20:09:35.955Z,92.63
2023-03-10T20:12:02.848Z,91.56
2023-03-10T20:14:29.230Z,92.49
2023-03-10T20:16:55.664Z,91.24
2023-03-10T20:19:22.778Z,91.99
2023-03-10T20:21:50.453Z,91.11
2023-03-10T20:24:18.096Z,91.87
2023-03-10T20:26:44.747Z,92.91
2023-03-10T20:29:11.673Z,91.88
2023-03-10T20:31:38.338Z,91.73
2023-03-10T20:34:06.265Z,92.05
2023-03-10T20:36:33.093Z,92.63
2023-03-10T20:38:59.453Z,91.49
2023-03-10T20:41:25.850Z,92.91
2023-03-10T20:43:53.292Z,91.87
2023-03-10T20:46:19.959Z,92.06
2023-03-10T20:48:49.674Z,93.22
2023-03-10T20:51:18.645Z,92.36
2023-03-10T20:53:45.386Z,93.20
2023-03-10T20:56:12.154Z,92.85
2023-03-10T20:58:38.615Z,92.93
2023-03-10T21:01:05.323Z,93.02
2023-03-10T21:03:31.764Z,93.52
2023-03-10T21:05:58.157Z,93.97
2023-03-10T21:08:24.572Z,93.42
2023-03-10T21:10:51.557Z,93.62
2023-03-10T21:13:17.952Z,92.81
2023-03-10T21:15:44.323Z,92.77
2023-03-10T21:18:10.659Z,93.08
2023-03-10T21:20:36.968Z,92.67
2023-03-10T21:23:03.304Z,93.65
2023-03-10T21:25:29.781Z,92.38
2023-03-10T21:27:58.731Z,92.85
2023-03-10T21:30:30.029Z,93.29
2023-03-10T21:32:57.463Z,93.11
2023-03-10T21:35:25.353Z,93.08
2023-03-10T21:37:51.763Z,92.71
2023-03-10T21:40:20.157Z,92.22
2023-03-10T21:42:49.390Z,91.89
2023-03-10T21:45:21.455Z,92.56
2023-03-10T21:47:47.893Z,91.38
2023-03-10T21:50:15.403Z,91.31
2023-03-10T21:52:42.164Z,91.31
2023-03-10T21:55:15.887Z,90.87
2023-03-10T21:57:42.254Z,92.01
2023-03-10T22:00:09.602Z,92.15
2023-03-10T22:02:37.101Z,91.44
2023-03-10T22:05:06.048Z,91.12
2023-03-10T22:07:33.462Z,91.95
2023-03-10T22:09:59.827Z,92.00
2023-03-10T22:12:26.194Z,91.21
2023-03-10T22:14:56.224Z,92.06
2023-03-10T22:17:23.940Z,91.87
2023-03-10T22:19:51.692Z,90.58
2023-03-10T22:22:18.023Z,91.77
2023-03-10T22:24:44.356Z,90.35
2023-03-10T22:27:10.711Z,91.55
2023-03-10T22:29:37.041Z,91.38
2023-03-10T22:32:04.357Z,90.45
2023-03-10T22:34:30.835Z,90.02
2023-03-10T22:36:57.291Z,91.14
2023-03-10T22:39:24.452Z,90.54
2023-03-10T22:41:50.830Z,90.49
2023-03-10T22:44:17.248Z,91.60
2023-03-10T22:46:45.161Z,91.42
2023-03-10T22:49:11.814Z,91.87
2023-03-10T22:51:38.866Z,91.77
2023-03-10T22:54:05.250Z,91.60
2023-03-10T22:56:31.565Z,92.11
2023-03-10T22:58:57.960Z,90.52
2023-03-10T23:01:24.308Z,90.91
2023-03-10T23:03:50.732Z,91.27
2023-03-10T23:06:17.157Z,91.73
2023-03-10T23:08:43.883Z,93.02
2023-03-10T23:11:12.083Z,92.46
2023-03-10T23:13:38.602Z,92.98
2023-03-10T23:16:05.543Z,92.75
2023-03-10T23:18:31.932Z,92.51
2023-03-10T23:20:58.655Z,93.78
2023-03-10T23:23:24.998Z,93.03
2023-03-10T23:25:51.767Z,93.28
2023-03-10T23:28:20.468Z,92.77
2023-03-10T23:30:48.497Z,93.02
2023-03-10T23:33:19.103Z,91.50
2023-03-10T23:35:46.307Z,91.65
2023-03-10T23:38:12.840Z,91.72
2023-03-10T23:40:39.156Z,92.30
2023-03-10T23:43:08.032Z,92.30
2023-03-10T23:45:36.560Z,91.67
2023-03-10T23:48:06.107Z,92.03
2023-03-10T23:50:35.576Z,91.86
2023-03-10T23:53:03.490Z,90.78
2023-03-10T23:55:34.013Z,91.52
2023-03-10T23:58:00.853Z,90.45
